createdAt,value
2023-08-28T00:02:12.483Z,1.1
2023-08-28T00:07:57.123Z,1.3
2023-08-28T00:13:41.422Z,1
2023-08-28T00:19:25.714Z,1
2023-08-28T00:25:10.505Z,1
2023-08-28T00:30:54.843Z,0.8
2023-08-28T00:36:45.073Z,0.9
2023-08-28T00:42:29.366Z,0.9
2023-08-28T00:48:14.112Z,1
2023-08-28T00:54:00.080Z,0.9
2023-08-28T00:59:44.855Z,1
2023-08-28T01:05:34.206Z,1.1
2023-08-28T01:11:21.946Z,0.9
2023-08-28T01:17:08.758Z,0.9
2023-08-28T01:22:57.092Z,1.1
2023-08-28T01:28:41.555Z,1.1
2023-08-28T01:34:25.937Z,0.9
2023-08-28T01:40:12.241Z,1
2023-08-28T01:45:56.694Z,1
2023-08-28T01:51:40.825Z,0.9
2023-08-28T01:57:25.018Z,0.9
2023-08-28T02:03:09.809Z,0.9
2023-08-28T02:08:54.272Z,0.9
2023-08-28T02:14:38.651Z,0.8
2023-08-28T02:20:23.039Z,0.9
2023-08-28T02:26:07.359Z,0.9
2023-08-28T02:31:51.614Z,0.9
2023-08-28T02:37:35.957Z,0.9
2023-08-28T02:43:20.288Z,0.9
2023-08-28T02:49:04.513Z,0.9
2023-08-28T02:54:48.855Z,0.9
2023-08-28T03:00:33.102Z,0.8
2023-08-28T03:06:17.625Z,0.9
2023-08-28T03:12:02.096Z,0.9
2023-08-28T03:17:46.505Z,0.9
2023-08-28T03:23:31.047Z,0.8
2023-08-28T03:29:15.430Z,0.8
2023-08-28T03:34:59.664Z,0.8
2023-08-28T03:40:44.034Z,1.1
2023-08-28T03:46:28.435Z,0.7
2023-08-28T03:52:12.889Z,0.8
2023-08-28T03:57:58.786Z,0.8
2023-08-28T04:03:43.358Z,1.3
2023-08-28T04:09:27.671Z,0.9
2023-08-28T04:15:13.165Z,0.9
2023-08-28T04:20:57.525Z,0.8
2023-08-28T04:26:42.060Z,1
2023-08-28T04:32:26.484Z,0.9
2023-08-28T04:38:14.805Z,1
2023-08-28T04:43:59.200Z,1
2023-08-28T04:49:43.500Z,1.1
2023-08-28T04:55:27.799Z,1
2023-08-28T05:01:12.188Z,1.2
2023-08-28T05:06:56.665Z,1
2023-08-28T05:12:41.076Z,1.1
2023-08-28T05:18:25.545Z,1.1
2023-08-28T05:24:10.357Z,1.1
2023-08-28T05:29:54.970Z,1.8
2023-08-28T05:35:39.150Z,2.1
2023-08-28T05:41:23.382Z,1.8
2023-08-28T05:47:08.616Z,1.8
2023-08-28T05:52:52.918Z,1.6
2023-08-28T05:58:38.493Z,1.8
2023-08-28T06:04:23.671Z,2.2
2023-08-28T06:10:12.790Z,1.8
2023-08-28T06:15:57.046Z,1.7
2023-08-28T06:21:41.220Z,1.9
2023-08-28T06:27:25.410Z,1.8
2023-08-28T06:33:10.231Z,1.9
2023-08-28T06:38:59.835Z,1.9
2023-08-28T06:44:44.033Z,2.1
2023-08-28T06:50:28.480Z,2.3
2023-08-28T06:56:12.796Z,2.8
2023-08-28T07:01:57.120Z,2.4
2023-08-28T07:07:41.298Z,3.7
2023-08-28T07:13:25.549Z,3.5
2023-08-28T07:19:10.032Z,3.4
2023-08-28T07:24:54.382Z,4
2023-08-28T07:30:39.251Z,3.5
2023-08-28T07:36:27.329Z,3.8
2023-08-28T07:42:11.938Z,3.8
2023-08-28T07:47:56.258Z,4
2023-08-28T07:53:41.033Z,3.8
2023-08-28T07:59:25.288Z,3.7
2023-08-28T08:05:10.069Z,3.4
2023-08-28T08:10:54.427Z,3.4
2023-08-28T08:16:39.002Z,3.7
2023-08-28T08:22:23.288Z,3.4
2023-08-28T08:28:07.687Z,2.9
2023-08-28T08:33:51.805Z,3
2023-08-28T08:39:39.522Z,2
2023-08-28T08:45:27.076Z,2.3
2023-08-28T08:51:11.558Z,1.8
2023-08-28T08:56:57.673Z,1.8
2023-08-28T09:02:42.477Z,1.5
2023-08-28T09:08:27.598Z,1.5
2023-08-28T09:14:11.873Z,1.3
2023-08-28T09:19:56.212Z,1.1
2023-08-28T09:25:41.208Z,1.3
2023-08-28T09:31:30.111Z,1.2
2023-08-28T09:37:17.333Z,0.9
2023-08-28T09:43:04.244Z,0.8
2023-08-28T09:48:49.054Z,0.8
2023-08-28T09:54:33.530Z,0.9
2023-08-28T10:00:18.457Z,0.9
2023-08-28T10:06:03.640Z,0.8
2023-08-28T10:11:48.291Z,0.8
2023-08-28T10:17:35.806Z,0.9
2023-08-28T10:23:20.239Z,0.8
2023-08-28T10:29:05.324Z,0.7
2023-08-28T10:34:49.524Z,0.7
2023-08-28T10:40:34.454Z,0.7
2023-08-28T10:46:20.417Z,0.6
2023-08-28T10:52:08.537Z,1
2023-08-28T10:57:54.218Z,0.9
2023-08-28T11:03:44.862Z,0.8
2023-08-28T11:09:39.162Z,0.9
2023-08-28T11:15:27.459Z,0.9
2023-08-28T11:21:11.926Z,0.7
2023-08-28T11:26:56.305Z,0.8
2023-08-28T11:32:41.567Z,0.8
2023-08-28T11:38:26.935Z,0.8
2023-08-28T11:44:14.009Z,0.8
2023-08-28T11:49:58.782Z,0.8
2023-08-28T11:55:43.353Z,0.9
2023-08-28T12:01:28.060Z,0.8
2023-08-28T12:07:28.585Z,0.8
2023-08-28T12:13:12.832Z,0.7
2023-08-28T12:18:57.336Z,0.7
2023-08-28T12:24:46.128Z,0.9
2023-08-28T12:30:30.443Z,0.8
2023-08-28T12:36:15.822Z,0.9
2023-08-28T12:42:00.603Z,1
2023-08-28T12:47:44.929Z,0.9
2023-08-28T12:53:29.663Z,1.4
2023-08-28T12:59:13.902Z,1.2
2023-08-28T13:04:58.200Z,1.1
2023-08-28T13:10:42.632Z,0.9
2023-08-28T13:16:27.019Z,1
2023-08-28T13:22:11.623Z,1
2023-08-28T13:27:55.929Z,0.8
2023-08-28T13:33:40.184Z,0.9
2023-08-28T13:39:24.422Z,0.8
2023-08-28T13:45:09.569Z,1
2023-08-28T13:50:54.267Z,0.9
2023-08-28T13:56:38.563Z,0.8
2023-08-28T14:02:22.967Z,0.7
2023-08-28T14:08:07.666Z,0.8
2023-08-28T14:13:51.859Z,0.9
2023-08-28T14:19:36.365Z,0.9
2023-08-28T14:25:20.565Z,0.9
2023-08-28T14:31:05.050Z,0.8
2023-08-28T14:36:49.314Z,0.9
2023-08-28T14:42:34.495Z,0.8
2023-08-28T14:48:18.894Z,0.8
2023-08-28T14:54:03.511Z,1
2023-08-28T14:59:48.031Z,0.9
2023-08-28T15:05:33.719Z,1
2023-08-28T15:11:18.361Z,0.9
2023-08-28T15:17:02.727Z,0.8
2023-08-28T15:22:46.977Z,0.8
2023-08-28T15:28:31.103Z,0.8
2023-08-28T15:34:15.493Z,0.8
2023-08-28T15:39:59.877Z,0.8
2023-08-28T15:45:49.305Z,0.9
2023-08-28T15:51:34.588Z,0.8
2023-08-28T15:57:19.101Z,1
2023-08-28T16:03:04.209Z,0.9
2023-08-28T16:08:49.212Z,0.8
2023-08-28T16:14:33.750Z,0.9
2023-08-28T16:20:18.880Z,0.9
2023-08-28T16:26:03.332Z,0.8
2023-08-28T16:31:47.798Z,1
2023-08-28T16:37:33.215Z,1
2023-08-28T16:43:17.827Z,1
2023-08-28T16:49:02.369Z,5.5
2023-08-28T16:54:46.638Z,4.1
2023-08-28T17:00:31.165Z,3.4
2023-08-28T17:06:15.441Z,14.7
2023-08-28T17:11:59.726Z,100.8
2023-08-28T17:17:44.340Z,61.6
2023-08-28T17:23:28.592Z,46
2023-08-28T17:29:12.817Z,41.3
2023-08-28T17:34:57.531Z,37.6
2023-08-28T17:40:42.702Z,27.5
2023-08-28T17:46:27.046Z,23.2
2023-08-28T17:52:11.477Z,18.7
2023-08-28T17:57:56.107Z,15.5
2023-08-28T18:03:42.721Z,13.2
2023-08-28T18:09:27.845Z,12.3
2023-08-28T18:15:12.996Z,10.4
2023-08-28T18:20:57.261Z,10.4
2023-08-28T18:26:41.490Z,9.2
2023-08-28T18:32:25.829Z,8.8
2023-08-28T18:38:10.334Z,8.7
2023-08-28T18:43:54.685Z,4.1
2023-08-28T18:49:39.134Z,4.2
2023-08-28T18:55:33.628Z,4
2023-08-28T19:01:18.113Z,4.2
2023-08-28T19:07:02.591Z,4
2023-08-28T19:12:47.018Z,3.7
2023-08-28T19:18:31.270Z,3.6
2023-08-28T19:24:15.620Z,3.5
2023-08-28T19:29:59.866Z,3.3
2023-08-28T19:35:44.434Z,2.9
2023-08-28T19:41:28.693Z,2.9
2023-08-28T19:47:13.135Z,2.5
2023-08-28T19:52:57.553Z,2.6
2023-08-28T19:58:41.842Z,2.7
2023-08-28T20:04:26.397Z,2.6
2023-08-28T20:10:10.940Z,2.7
2023-08-28T20:15:57.314Z,2.3
2023-08-28T20:21:41.900Z,2.1
2023-08-28T20:27:26.248Z,2.2
2023-08-28T20:33:10.948Z,2.2
2023-08-28T20:38:55.330Z,2.1
2023-08-28T20:44:40.455Z,2
2023-08-28T20:50:25.020Z,1.9
2023-08-28T20:56:09.316Z,2.2
2023-08-28T21:01:53.514Z,2.1
2023-08-28T21:07:37.951Z,1.9
2023-08-28T21:13:22.340Z,1.7
2023-08-28T21:19:06.658Z,1.8
2023-08-28T21:24:50.891Z,1.8
2023-08-28T21:30:35.281Z,1.7
2023-08-28T21:36:19.522Z,1.7
2023-08-28T21:42:03.825Z,1.8
2023-08-28T21:47:48.447Z,1.7
2023-08-28T21:53:32.850Z,1.7
2023-08-28T21:59:17.242Z,1.6
2023-08-28T22:05:01.496Z,1.6
2023-08-28T22:10:46.800Z,1.6
2023-08-28T22:16:31.307Z,1.6
2023-08-28T22:22:15.534Z,1.6
2023-08-28T22:27:59.873Z,1.4
2023-08-28T22:33:44.196Z,1.4
2023-08-28T22:39:28.604Z,1.5
2023-08-28T22:45:13.117Z,1.6
2023-08-28T22:50:57.456Z,1.4
2023-08-28T22:56:41.851Z,1.5
2023-08-28T23:02:26.331Z,1.7
2023-08-28T23:08:10.809Z,1.5
2023-08-28T23:13:55.050Z,1.6
2023-08-28T23:19:39.330Z,1.5
2023-08-28T23:25:23.582Z,1.7
2023-08-28T23:31:10.827Z,1.5
2023-08-28T23:36:55.134Z,1.4
2023-08-28T23:42:39.330Z,1.4
2023-08-28T23:48:23.859Z,1.4
2023-08-28T23:54:08.429Z,1.5
2023-08-28T23:59:52.690Z,1.3
